St. Louis, MO

5:57 AM CST on February 11, 2016 (GMT -0600)
Shaw/Tower Grove | | Change Station
CLOSE
Current Station
Personal Weather Station
Location: St. Louis, MO
Elevation: 502 ft
Nearby Weather Stations

Elev 502 ft 38.61 °N, 90.25 °W | Updated 38 seconds ago

Overcast
Overcast
22.5 °F
Feels Like 22 °F
N
2.0
Wind Variable Wind from North
Gusts 2.0 mph

Today
High -- | Low -- °F
--% Chance of Precip.
Yesterday
High -- | Low -- °F
Precip. -- in
Pressure 30.31 in
Visibility 10.0 miles
Clouds Few 1500 ft
Overcast 4400 ft
Windchill 22 °F
Dew Point 19 °F
Humidity 85%
Rainfall 0.00 in
Snow Depth Not available.
6:57 AM 5:33 PM
Waxing Crescent, 11% visible
METAR KSTL 111151Z 04007KT 10SM FEW015 OVC044 M05/M09 A3026 RMK AO2 SLP263 4/001 70006 T10501089 11044 21050 53025
Pressure 30.31 in
Visibility 10.0 miles
Clouds Few 1500 ft
Overcast 4400 ft
Windchill 22 °F
Dew Point 19 °F
Humidity 85%
Rainfall 0.00 in
Snow Depth Not available.
6:57 AM 5:33 PM
Waxing Crescent, 11% visible
METAR KSTL 111151Z 04007KT 10SM FEW015 OVC044 M05/M09 A3026 RMK AO2 SLP263 4/001 70006 T10501089 11044 21050 53025

10-Day Weather Forecast

Almanac

Astronomy

Feb. 11, 2016 Rise Set
Actual Time
Civil Twilight
Nautical Twilight
Astronomical Twilight
Moon
Length of Visible Light
Length of Day
Tomorrow will be .
, % of the Moon is Illuminated

Today's Extremes

State Highs State Lows

Community

WunderPhotos

Upload Photos

1,892,030 photos uploaded!

WunderBlog® & News

Nearby

Air Quality

  Air Quality AQ Index Pollutant
Not available.

Snow Depth

Station Depth Elevation

Earthquake Activity

City Distance Mag. Time & Date
Minimum magnitude displayed is 2.5.

Coastal Water Temperatures

Place Temperature

Stations

Nearby Weather Stations

Station Location Temp. Windchill Dew Point Humidity Wind Precip. Elev Updated Type
                   

Watches & Warnings

There are currently no watches in effect.